Time;durP1;ratioP1;P1;durP2;ratioP2;P2;SDS_P1;SDS_P2;PMS_P1;PMS_P2;Temp;Humidity;BMP_temperature;BMP_pressure;BME280_temperature;BME280_humidity;BME280_pressure;Samples;Min_cycle;Max_cycle;Signal;HPM_P1;HPM_P2
2022/03/05 00:00:14;;;;;;;35.03;24.47;;;;;;;1.67;52.03;101393.59;2080731;28;20670;-71
2022/03/05 00:01:14;;;;;;;33.40;23.60;;;;;;;1.27;51.81;101349.28;2081643;28;20559;-71
2022/03/05 00:02:15;;;;;;;32.87;24.30;;;;;;;-0.60;51.67;101035.88;2081643;28;20235;-71
2022/03/05 00:03:16;;;;;;;33.20;24.43;;;;;;;1.73;52.12;101405.03;2081826;28;20172;-71
2022/03/05 00:04:17;;;;;;;31.10;21.58;;;;;;;1.37;51.84;101348.75;2080536;28;20282;-71
2022/03/05 00:05:18;;;;;;;30.00;21.63;;;;;;;2.24;52.15;101477.69;2081572;28;20188;-71
2022/03/05 00:06:19;;;;;;;32.47;21.75;;;;;;;1.34;51.56;101348.66;2080207;28;20563;-71
2022/03/05 00:07:20;;;;;;;27.73;20.53;;;;;;;1.31;51.20;101324.78;2080942;28;20274;-71
2022/03/05 00:08:21;;;;;;;32.67;23.77;;;;;;;1.66;51.59;101383.81;2081697;28;20172;-71
2022/03/05 00:09:22;;;;;;;33.65;21.95;;;;;;;2.18;51.61;101474.47;2081698;28;20180;-71
2022/03/05 00:10:23;;;;;;;31.77;21.67;;;;;;;2.22;51.28;101469.84;2081661;28;20189;-71
2022/03/05 00:11:24;;;;;;;30.17;20.13;;;;;;;2.23;50.72;101473.38;2081638;28;20188;-71
2022/03/05 00:12:24;;;;;;;29.77;19.90;;;;;;;1.30;50.53;101332.16;2081510;28;20208;-71
2022/03/05 00:13:25;;;;;;;30.67;20.57;;;;;;;1.37;50.64;101343.28;2081547;28;20650;-71
2022/03/05 00:14:26;;;;;;;32.57;21.73;;;;;;;2.13;50.87;101468.47;2080670;28;20173;-71
2022/03/05 00:15:28;;;;;;;31.27;20.90;;;;;;;2.09;50.94;101471.13;2081058;28;20558;-71
2022/03/05 00:16:28;;;;;;;31.92;20.88;;;;;;;1.25;50.89;101339.84;2081291;28;20647;-71
2022/03/05 00:17:29;;;;;;;30.53;21.07;;;;;;;2.06;50.84;101471.81;2081310;28;20536;-71
2022/03/05 00:18:30;;;;;;;31.17;20.90;;;;;;;0.89;50.84;101291.75;2081587;28;20180;-71
2022/03/05 00:19:31;;;;;;;33.38;21.42;;;;;;;2.05;50.42;101470.25;2081244;28;20226;-71
2022/03/05 00:20:32;;;;;;;28.80;20.63;;;;;;;1.84;50.92;101449.78;2081636;28;20177;-71
2022/03/05 00:21:33;;;;;;;33.13;21.20;;;;;;;2.01;50.67;101477.56;2081583;28;20181;-71
2022/03/05 00:22:33;;;;;;;32.20;21.40;;;;;;;1.75;51.16;101435.53;2073286;28;20188;-71
2022/03/05 00:23:35;;;;;;;28.57;19.83;;;;;;;1.79;50.92;101436.38;2073355;28;20182;-71
2022/03/05 00:24:36;;;;;;;34.05;21.88;;;;;;;1.68;50.92;101430.69;2072300;28;20201;-71
2022/03/05 00:25:37;;;;;;;32.23;22.57;;;;;;;1.91;52.17;101496.44;2072985;28;20177;-71
2022/03/05 00:26:37;;;;;;;34.43;23.57;;;;;;;1.13;52.81;101346.19;2072759;28;20471;-71
2022/03/05 00:27:39;;;;;;;32.00;22.47;;;;;;;1.94;51.55;101469.19;2073181;28;20598;-71
2022/03/05 00:28:39;;;;;;;30.77;22.70;;;;;;;1.84;52.12;101458.78;2073288;28;20213;-71
2022/03/05 00:29:40;;;;;;;31.83;21.60;;;;;;;1.92;50.75;101481.63;2073327;28;20235;-71
2022/03/05 00:30:41;;;;;;;33.13;22.17;;;;;;;1.90;51.53;101476.50;2072480;28;20284;-71
2022/03/05 00:31:41;;;;;;;30.23;22.70;;;;;;;1.90;51.78;101467.53;2072732;28;20280;-71
2022/03/05 00:32:43;;;;;;;30.67;21.33;;;;;;;1.45;52.64;101429.69;2073127;28;20206;-71
2022/03/05 00:33:44;;;;;;;31.17;22.20;;;;;;;1.42;51.73;101394.09;2084600;28;20187;-71
2022/03/05 00:34:44;;;;;;;33.60;24.13;;;;;;;1.20;52.21;101400.97;2080688;28;20742;-71
2022/03/05 00:35:45;;;;;;;32.60;22.93;;;;;;;1.82;52.58;101472.03;2081054;28;20254;-71
2022/03/05 00:36:46;;;;;;;33.30;23.87;;;;;;;0.68;51.98;101313.03;2080943;28;20177;-71
2022/03/05 00:37:46;;;;;;;35.60;26.03;;;;;;;1.16;53.20;101385.63;2081206;28;20180;-71
2022/03/05 00:38:47;;;;;;;39.50;28.93;;;;;;;1.73;53.10;101476.06;2081327;28;20654;-71
2022/03/05 00:39:47;;;;;;;34.03;25.87;;;;;;;1.60;53.13;101453.50;2081248;28;20589;-70
2022/03/05 00:40:48;;;;;;;35.93;25.90;;;;;;;1.90;52.80;101481.19;2081369;28;20179;-71
2022/03/05 00:41:49;;;;;;;36.17;26.70;;;;;;;1.77;53.22;101438.69;2080769;28;20238;-70
2022/03/05 00:42:49;;;;;;;33.00;25.00;;;;;;;0.59;52.48;101259.78;2081156;28;20230;-71
2022/03/05 00:43:50;;;;;;;33.70;23.70;;;;;;;1.31;52.67;101363.81;2080511;28;20258;-71
2022/03/05 00:44:50;;;;;;;32.33;24.80;;;;;;;2.02;52.33;101470.16;2080632;28;20191;-71
2022/03/05 00:45:51;;;;;;;30.50;22.57;;;;;;;1.37;52.34;101354.22;2080322;28;20177;-71
2022/03/05 00:46:51;;;;;;;33.37;23.27;;;;;;;2.11;52.69;101474.28;2080984;28;20184;-71
2022/03/05 00:47:52;;;;;;;30.20;21.67;;;;;;;1.75;52.03;101410.94;2081058;28;20196;-71
2022/03/05 00:48:53;;;;;;;33.07;23.40;;;;;;;1.66;51.80;101407.59;2078060;28;20195;-71
2022/03/05 00:49:54;;;;;;;33.00;23.53;;;;;;;2.12;52.25;101464.94;2073966;28;20634;-71
2022/03/05 00:50:54;;;;;;;32.40;23.53;;;;;;;1.52;52.25;101372.53;2082129;28;20477;-71
2022/03/05 00:51:55;;;;;;;33.23;23.37;;;;;;;1.77;51.61;101405.91;2096932;28;20199;-71
2022/03/05 00:52:55;;;;;;;31.73;22.83;;;;;;;1.49;52.33;101361.53;2097079;28;20262;-71
2022/03/05 00:53:56;;;;;;;32.93;23.20;;;;;;;2.16;51.56;101470.50;2087971;28;20230;-71
2022/03/05 00:54:56;;;;;;;32.70;23.43;;;;;;;1.88;51.31;101423.34;2084162;28;20184;-71
2022/03/05 00:55:57;;;;;;;39.20;24.43;;;;;;;1.94;51.45;101439.13;2080762;28;20178;-71
2022/03/05 00:56:57;;;;;;;34.93;24.80;;;;;;;1.63;51.28;101397.34;2081012;28;20275;-71
2022/03/05 00:57:58;;;;;;;34.43;25.20;;;;;;;1.68;51.83;101418.94;2080903;28;20643;-71
2022/03/05 00:58:59;;;;;;;34.73;26.10;;;;;;;1.84;52.60;101502.53;2081325;28;20231;-71
2022/03/05 00:59:59;;;;;;;36.17;25.67;;;;;;;1.82;52.86;101476.69;2081327;28;20466;-71
2022/03/05 01:01:00;;;;;;;35.33;26.17;;;;;;;1.71;53.28;101462.75;2081262;28;20184;-71
2022/03/05 01:02:01;;;;;;;32.90;24.20;;;;;;;1.89;52.79;101474.94;2081106;28;20203;-71
2022/03/05 01:03:02;;;;;;;33.77;25.70;;;;;;;1.19;52.44;101352.19;2080539;28;20181;-71
2022/03/05 01:04:02;;;;;;;33.55;23.40;;;;;;;1.98;52.35;101475.53;2079495;28;20247;-71
2022/03/05 01:05:03;;;;;;;30.50;21.97;;;;;;;1.96;51.01;101477.03;2081336;28;20210;-71
2022/03/05 01:06:05;;;;;;;33.80;23.37;;;;;;;1.38;51.81;101376.84;2080582;28;20696;-70
2022/03/05 01:07:05;;;;;;;33.35;22.42;;;;;;;1.92;51.30;101467.97;2081202;28;20604;-71
2022/03/05 01:08:06;;;;;;;31.77;24.10;;;;;;;1.17;52.45;101352.53;2080998;28;20184;-71
2022/03/05 01:09:06;;;;;;;36.87;25.80;;;;;;;1.90;52.82;101476.50;2081246;28;20196;-71
2022/03/05 01:10:08;;;;;;;34.93;26.10;;;;;;;0.97;53.52;101345.38;2081023;28;20564;-71
2022/03/05 01:11:08;;;;;;;35.60;26.65;;;;;;;0.86;53.39;101327.94;2081041;28;20255;-71
2022/03/05 01:12:09;;;;;;;39.37;27.13;;;;;;;1.95;53.49;101468.03;2081041;28;20177;-71
2022/03/05 01:13:10;;;;;;;33.10;24.70;;;;;;;1.96;52.10;101469.63;2081135;28;20680;-71
2022/03/05 01:14:10;;;;;;;35.23;26.80;;;;;;;1.98;52.54;101470.06;2080250;28;20535;-71
2022/03/05 01:15:11;;;;;;;33.67;24.03;;;;;;;1.83;51.61;101440.00;2081057;28;20165;-71
2022/03/05 01:16:12;;;;;;;32.30;24.50;;;;;;;1.50;51.50;101404.06;2080428;28;20214;-71
2022/03/05 01:17:13;;;;;;;34.72;24.30;;;;;;;1.48;51.77;101392.69;2080896;28;20269;-71
2022/03/05 01:18:13;;;;;;;33.23;23.23;;;;;;;1.97;51.53;101467.69;2081031;28;20180;-71
2022/03/05 01:19:14;;;;;;;31.60;23.33;;;;;;;1.86;52.73;101442.81;2080922;28;20210;-71
2022/03/05 01:20:15;;;;;;;31.40;23.47;;;;;;;1.87;52.27;101446.34;2081066;28;20183;-71
2022/03/05 01:21:16;;;;;;;33.47;24.13;;;;;;;1.96;51.57;101498.91;2081133;28;20199;-71
2022/03/05 01:22:16;;;;;;;33.05;22.80;;;;;;;1.71;52.22;101438.16;2080996;28;20180;-71
2022/03/05 01:23:17;;;;;;;32.57;22.80;;;;;;;1.93;52.29;101469.53;2080979;28;20235;-71
2022/03/05 01:24:18;;;;;;;34.33;23.83;;;;;;;1.90;53.04;101473.78;2080021;28;20239;-71
2022/03/05 01:25:19;;;;;;;36.10;24.30;;;;;;;0.65;52.87;101278.28;2081010;28;20169;-71
2022/03/05 01:26:19;;;;;;;37.43;24.17;;;;;;;1.88;52.33;101472.53;2080543;28;20270;-71
2022/03/05 01:27:22;;;;;;;33.73;24.63;;;;;;;1.24;53.30;101380.00;2080672;28;20177;-71
2022/03/05 01:28:22;;;;;;;34.50;22.88;;;;;;;0.66;52.32;101289.97;2081113;28;20266;-71
2022/03/05 01:29:23;;;;;;;34.33;24.97;;;;;;;1.54;53.25;101427.59;2081169;28;20181;-71
2022/03/05 01:30:23;;;;;;;36.03;23.90;;;;;;;1.86;53.29;101489.28;2080981;28;20212;-71
2022/03/05 01:31:24;;;;;;;33.93;24.73;;;;;;;1.87;53.43;101474.50;2080880;28;20245;-71
2022/03/05 01:32:24;;;;;;;35.97;25.37;;;;;;;1.70;53.05;101449.47;2080399;28;20184;-71
2022/03/05 01:33:25;;;;;;;33.07;24.13;;;;;;;1.20;52.67;101386.53;2080313;28;20176;-71
2022/03/05 01:34:26;;;;;;;32.97;24.13;;;;;;;1.96;52.83;101469.63;2079906;28;20180;-71
2022/03/05 01:35:27;;;;;;;36.27;25.73;;;;;;;1.96;53.03;101477.03;2080581;28;20181;-71
2022/03/05 01:36:27;;;;;;;32.37;23.10;;;;;;;1.78;53.06;101443.81;2080638;28;20254;-71
2022/03/05 01:37:28;;;;;;;32.13;24.17;;;;;;;1.97;52.98;101473.97;2080658;28;20176;-71
2022/03/05 01:38:28;;;;;;;33.43;22.43;;;;;;;0.30;51.95;101238.34;2080250;28;20227;-71
2022/03/05 01:39:29;;;;;;;32.27;22.97;;;;;;;1.89;52.79;101468.66;2080117;28;20180;-71
2022/03/05 01:40:30;;;;;;;34.63;25.13;;;;;;;1.80;53.37;101471.56;2080262;28;20228;-71
2022/03/05 01:41:31;;;;;;;33.78;24.23;;;;;;;1.55;53.53;101447.50;2080124;28;20186;-71
2022/03/05 01:42:31;;;;;;;31.93;22.60;;;;;;;0.50;52.14;101264.59;2081037;28;20181;-71
2022/03/05 01:43:32;;;;;;;35.90;25.83;;;;;;;1.83;53.30;101470.88;2080839;28;20186;-71
2022/03/05 01:44:33;;;;;;;34.60;24.80;;;;;;;1.30;53.01;101407.84;2079834;28;20266;-71
2022/03/05 01:45:34;;;;;;;33.30;23.73;;;;;;;1.27;52.01;101383.97;2080269;28;20180;-71
2022/03/05 01:46:37;;;;;;;35.47;24.93;;;;;;;1.58;51.83;101439.41;2080616;28;20650;-71
2022/03/05 01:47:39;;;;;;;33.80;24.38;;;;;;;1.75;53.01;101476.53;2080631;28;20181;-71
2022/03/05 01:48:39;;;;;;;37.47;25.17;;;;;;;1.65;53.19;101452.47;2080823;28;20569;-71
2022/03/05 01:49:40;;;;;;;35.53;25.63;;;;;;;1.35;52.83;101402.13;2080849;28;20175;-71
2022/03/05 01:50:41;;;;;;;34.23;25.43;;;;;;;0.14;52.93;101218.44;2080615;28;20236;-71
2022/03/05 01:51:42;;;;;;;33.67;24.37;;;;;;;1.74;52.34;101464.78;2086841;28;20179;-71
2022/03/05 01:52:43;;;;;;;32.67;25.08;;;;;;;1.71;52.76;101467.44;2088866;28;20175;-71
2022/03/05 01:53:43;;;;;;;34.40;24.87;;;;;;;1.68;52.39;101462.66;2089037;28;20215;-71
2022/03/05 01:54:44;;;;;;;37.13;26.27;;;;;;;1.66;52.92;101470.44;2087396;28;20285;-71
2022/03/05 01:55:45;;;;;;;35.30;25.53;;;;;;;0.38;52.66;101264.69;2087975;28;20183;-71
2022/03/05 01:56:46;;;;;;;35.08;25.73;;;;;;;1.66;52.81;101467.69;2088572;28;20164;-70
2022/03/05 01:57:46;;;;;;;34.03;24.83;;;;;;;1.36;52.79;101417.38;2086877;28;20190;-71
2022/03/05 01:58:48;;;;;;;31.93;23.27;;;;;;;1.68;52.22;101465.41;2080825;28;20208;-71
2022/03/05 01:59:49;;;;;;;31.73;24.63;;;;;;;1.08;52.18;101378.41;2080620;28;20188;-71
2022/03/05 02:00:50;;;;;;;36.10;23.93;;;;;;;1.49;52.58;101446.97;2080811;28;20185;-71
2022/03/05 02:01:51;;;;;;;35.13;24.92;;;;;;;0.76;53.06;101333.09;2080717;28;20181;-71
2022/03/05 02:02:52;;;;;;;35.13;23.67;;;;;;;1.66;52.58;101484.91;2080717;28;20216;-71
2022/03/05 02:03:54;;;;;;;35.50;23.85;;;;;;;0.46;52.54;101271.88;2079795;28;20241;-71
2022/03/05 02:04:55;;;;;;;33.63;24.63;;;;;;;0.46;52.98;101285.53;2080758;28;20184;-71
2022/03/05 02:05:55;;;;;;;37.97;24.57;;;;;;;1.66;52.63;101470.44;2079841;28;20276;-71
2022/03/05 02:06:56;;;;;;;33.53;24.40;;;;;;;1.25;52.42;101410.84;2079625;28;20581;-71
2022/03/05 02:07:57;;;;;;;34.00;24.67;;;;;;;1.60;52.02;101467.16;2080555;28;20263;-71
2022/03/05 02:08:58;;;;;;;33.90;24.42;;;;;;;1.59;52.41;101467.53;2080693;28;20234;-71
2022/03/05 02:09:58;;;;;;;36.70;24.40;;;;;;;1.13;52.66;101408.97;2080638;28;20181;-71
2022/03/05 02:10:59;;;;;;;33.37;24.13;;;;;;;1.49;52.94;101468.06;2080806;28;20180;-71
2022/03/05 02:11:59;;;;;;;39.53;25.67;;;;;;;0.70;53.02;101357.13;2080836;28;20259;-71
2022/03/05 02:13:00;;;;;;;34.07;24.27;;;;;;;-0.09;53.07;101226.38;2080558;28;20689;-71
2022/03/05 02:14:01;;;;;;;32.00;23.60;;;;;;;0.75;53.42;101359.59;2079057;28;20238;-70
2022/03/05 02:15:03;;;;;;;35.83;24.37;;;;;;;1.48;53.29;101472.72;2080073;28;20179;-70
2022/03/05 02:16:04;;;;;;;38.50;24.73;;;;;;;0.62;53.48;101332.75;2079854;28;20188;-71
2022/03/05 02:17:05;;;;;;;34.93;24.50;;;;;;;1.50;53.87;101473.13;2080624;28;20266;-71
2022/03/05 02:18:05;;;;;;;32.53;23.77;;;;;;;0.67;53.83;101346.91;2080532;28;20192;-71
2022/03/05 02:19:06;;;;;;;33.40;24.33;;;;;;;1.05;53.58;101399.03;2080702;28;20176;-71
2022/03/05 02:20:08;;;;;;;36.87;23.97;;;;;;;1.48;53.34;101469.16;2079849;28;20190;-71
2022/03/05 02:21:08;;;;;;;42.78;25.60;;;;;;;1.45;53.56;101470.66;2079957;28;20207;-71
2022/03/05 02:22:10;;;;;;;38.97;25.20;;;;;;;1.10;53.34;101415.16;2080698;28;20195;-71
2022/03/05 02:23:10;;;;;;;36.53;25.92;;;;;;;1.45;53.85;101462.47;2080889;28;20176;-71
2022/03/05 02:24:12;;;;;;;36.80;25.33;;;;;;;1.44;54.54;101468.31;2080741;28;20216;-71
2022/03/05 02:25:12;;;;;;;36.45;26.25;;;;;;;1.43;54.46;101467.50;2081775;28;20259;-71
2022/03/05 02:26:13;;;;;;;35.60;24.87;;;;;;;0.10;53.57;101252.97;2080983;28;20188;-71
2022/03/05 02:27:13;;;;;;;34.33;24.13;;;;;;;1.46;52.74;101466.00;2081523;28;20187;-71
2022/03/05 02:28:14;;;;;;;34.50;24.97;;;;;;;0.34;52.45;101297.31;2082308;28;20188;-71
2022/03/05 02:29:14;;;;;;;39.17;24.70;;;;;;;1.28;52.69;101443.69;2082369;28;20172;-71
2022/03/05 02:30:15;;;;;;;32.03;22.37;;;;;;;1.43;51.26;101469.44;2082344;28;20592;-71
2022/03/05 02:31:16;;;;;;;29.23;21.97;;;;;;;0.32;51.91;101296.84;2082421;28;20176;-71
2022/03/05 02:32:16;;;;;;;32.97;23.33;;;;;;;1.38;51.25;101470.50;2082314;28;20272;-71
2022/03/05 02:33:17;;;;;;;31.63;23.53;;;;;;;-1.44;51.23;101033.41;2082234;28;20168;-71
2022/03/05 02:34:18;;;;;;;31.80;23.35;;;;;;;0.22;51.51;101343.66;2081399;28;20168;-71
2022/03/05 02:35:18;;;;;;;32.43;24.13;;;;;;;0.86;51.69;101428.91;2082099;28;20672;-71
2022/03/05 02:36:22;;;;;;;29.87;23.17;;;;;;;1.15;51.95;101479.59;2081709;28;20196;-71
2022/03/05 02:37:23;;;;;;;36.50;25.42;;;;;;;1.07;52.71;101475.88;2082058;28;20213;-71
2022/03/05 02:38:24;;;;;;;36.63;24.83;;;;;;;1.03;54.33;101477.72;2082367;28;20183;-71
2022/03/05 02:39:25;;;;;;;37.95;25.58;;;;;;;0.56;53.87;101424.09;2082172;28;20658;-71
2022/03/05 02:40:26;;;;;;;35.38;25.77;;;;;;;0.72;55.33;101439.41;2082310;28;20179;-71
2022/03/05 02:41:26;;;;;;;33.60;25.13;;;;;;;0.92;54.71;101473.09;2082237;28;20180;-71
2022/03/05 02:42:27;;;;;;;40.53;26.80;;;;;;;0.71;54.35;101448.72;2081486;28;20194;-71
2022/03/05 02:43:28;;;;;;;38.67;26.77;;;;;;;0.38;55.26;101415.44;2081588;28;20189;-71
2022/03/05 02:44:28;;;;;;;36.03;26.20;;;;;;;-0.14;55.24;101318.47;2081275;28;20203;-71
2022/03/05 02:45:29;;;;;;;34.97;25.70;;;;;;;0.92;55.04;101481.28;2081714;28;20562;-71
2022/03/05 02:46:29;;;;;;;38.47;25.83;;;;;;;0.35;55.18;101382.59;2081796;28;20202;-71
2022/03/05 02:47:30;;;;;;;38.43;26.83;;;;;;;0.33;54.97;101382.97;2081927;28;20188;-71
2022/03/05 02:48:33;;;;;;;36.27;27.43;;;;;;;0.53;55.24;101406.50;2082130;28;20182;-71
2022/03/05 02:49:33;;;;;;;38.75;27.83;;;;;;;0.96;55.72;101474.78;2081986;28;20570;-71
2022/03/05 02:50:34;;;;;;;41.43;27.73;;;;;;;0.85;55.38;101460.06;2082053;28;20184;-71
2022/03/05 02:51:35;;;;;;;46.13;26.97;;;;;;;0.35;55.90;101383.41;2081373;28;20184;-71
2022/03/05 02:52:38;;;;;;;45.97;27.97;;;;;;;0.94;55.65;101474.31;2081509;28;20172;-71
2022/03/05 02:53:39;;;;;;;41.83;27.77;;;;;;;0.78;55.38;101456.34;2082032;28;20230;-71
2022/03/05 02:54:39;;;;;;;41.57;27.40;;;;;;;0.91;55.43;101477.78;2081168;28;20176;-71
2022/03/05 02:55:42;;;;;;;39.20;28.73;;;;;;;0.91;56.06;101479.69;2081702;28;20192;-71
2022/03/05 02:56:43;;;;;;;41.47;27.95;;;;;;;0.41;57.26;101392.91;2081571;28;20207;-71
2022/03/05 02:57:44;;;;;;;37.63;27.23;;;;;;;0.88;55.77;101473.00;2081891;28;20292;-71
2022/03/05 02:58:44;;;;;;;38.45;27.63;;;;;;;0.88;54.99;101478.44;2082065;28;20190;-71
2022/03/05 02:59:45;;;;;;;37.43;27.77;;;;;;;0.72;57.08;101455.00;2081917;28;20665;-71
2022/03/05 03:00:45;;;;;;;38.63;28.00;;;;;;;0.90;57.14;101478.13;2082098;28;20242;-71
2022/03/05 03:01:46;;;;;;;39.40;27.90;;;;;;;0.92;56.95;101481.28;2082126;28;20180;-71
2022/03/05 03:02:47;;;;;;;37.17;27.03;;;;;;;0.90;57.29;101478.91;2081854;28;20563;-71
2022/03/05 03:03:47;;;;;;;35.47;25.70;;;;;;;0.92;56.11;101492.19;2081249;28;20226;-71
2022/03/05 03:04:48;;;;;;;36.37;26.20;;;;;;;-0.43;54.67;101275.97;2081754;28;20255;-71
2022/03/05 03:05:49;;;;;;;34.17;25.83;;;;;;;0.93;54.82;101485.63;2081608;28;20175;-71
2022/03/05 03:06:50;;;;;;;38.33;26.17;;;;;;;0.92;54.78;101494.91;2081926;28;20258;-71
2022/03/05 03:07:51;;;;;;;38.38;25.75;;;;;;;0.86;54.98;101496.31;2081887;28;20176;-71
2022/03/05 03:08:52;;;;;;;37.92;26.75;;;;;;;0.64;55.09;101473.09;2082004;28;20184;-71
2022/03/05 03:09:53;;;;;;;36.43;26.37;;;;;;;0.76;55.96;101503.06;2079274;28;20184;-71
2022/03/05 03:10:53;;;;;;;34.90;25.90;;;;;;;0.13;55.70;101403.00;2073761;28;20199;-71
2022/03/05 03:11:54;;;;;;;40.03;27.33;;;;;;;-0.31;55.78;101335.03;2073996;28;20189;-71
2022/03/05 03:12:54;;;;;;;38.20;25.13;;;;;;;0.73;55.45;101492.03;2073546;28;20567;-71
2022/03/05 03:13:55;;;;;;;40.47;25.30;;;;;;;0.77;55.52;101501.91;2072811;28;20180;-71
2022/03/05 03:14:56;;;;;;;39.13;26.67;;;;;;;0.77;55.96;101504.63;2073716;28;20224;-71
2022/03/05 03:15:56;;;;;;;35.73;27.00;;;;;;;0.77;57.56;101509.31;2073352;28;20206;-71
2022/03/05 03:16:57;;;;;;;34.67;26.00;;;;;;;0.81;56.58;101505.53;2073332;28;20177;-70
2022/03/05 03:17:57;;;;;;;42.23;26.27;;;;;;;0.12;55.25;101416.97;2073498;28;20214;-71
2022/03/05 03:18:58;;;;;;;33.47;24.40;;;;;;;0.79;54.69;101510.56;2073657;28;20177;-71
2022/03/05 03:19:58;;;;;;;34.97;25.57;;;;;;;0.69;56.01;101491.13;2073617;28;20260;-71
2022/03/05 03:20:59;;;;;;;37.30;26.30;;;;;;;0.15;56.36;101403.44;2073648;28;20181;-71
2022/03/05 03:21:59;;;;;;;36.17;25.60;;;;;;;0.23;57.67;101415.34;2077260;28;20208;-71
2022/03/05 03:23:00;;;;;;;37.80;26.57;;;;;;;0.79;56.95;101507.84;2081887;28;20605;-71
2022/03/05 03:24:01;;;;;;;36.60;27.10;;;;;;;0.80;59.19;101498.50;2080871;28;20187;-71
2022/03/05 03:25:02;;;;;;;40.47;27.17;;;;;;;0.19;57.78;101426.16;2081823;28;20176;-71
2022/03/05 03:26:03;;;;;;;36.53;26.00;;;;;;;0.23;58.09;101399.00;2081372;28;20204;-71
2022/03/05 03:27:03;;;;;;;36.30;26.33;;;;;;;0.90;57.65;101506.22;2073542;28;20246;-71
2022/03/05 03:28:05;;;;;;;40.30;26.30;;;;;;;0.88;57.54;101497.56;2073485;28;20238;-71
2022/03/05 03:29:05;;;;;;;34.80;26.02;;;;;;;0.17;57.02;101392.97;2073681;28;20173;-71
2022/03/05 03:30:10;;;;;;;36.37;25.03;;;;;;;0.56;56.90;101462.28;2073678;28;20185;-71
2022/03/05 03:31:10;;;;;;;38.25;26.75;;;;;;;0.89;56.47;101499.13;2073586;28;20180;-71
2022/03/05 03:32:11;;;;;;;36.60;25.07;;;;;;;0.60;55.99;101477.63;2073744;28;20238;-71
2022/03/05 03:33:12;;;;;;;36.27;25.73;;;;;;;-0.03;55.97;101366.69;2073295;28;20181;-71
2022/03/05 03:34:12;;;;;;;36.57;25.93;;;;;;;-0.41;55.41;101317.25;2077919;28;20460;-71
2022/03/05 03:35:14;;;;;;;36.27;25.57;;;;;;;0.81;55.64;101507.47;2081778;28;20183;-71
2022/03/05 03:36:15;;;;;;;38.03;25.92;;;;;;;-0.29;55.44;101349.13;2080233;28;20193;-71
2022/03/05 03:37:16;;;;;;;37.67;26.53;;;;;;;-0.03;55.27;101390.41;2080988;28;20180;-71
2022/03/05 03:38:17;;;;;;;37.77;26.23;;;;;;;0.74;56.36;101510.00;2081800;28;20255;-71
2022/03/05 03:39:17;;;;;;;37.93;27.43;;;;;;;0.75;58.05;101515.13;2081699;28;20654;-71
2022/03/05 03:40:19;;;;;;;35.77;26.80;;;;;;;0.07;57.86;101406.28;2081569;28;20223;-71
2022/03/05 03:41:19;;;;;;;37.17;26.10;;;;;;;0.77;57.64;101518.28;2081023;28;20187;-71
2022/03/05 03:42:20;;;;;;;36.70;26.67;;;;;;;0.06;57.32;101402.00;2081154;28;20180;-71
2022/03/05 03:43:20;;;;;;;33.70;26.27;;;;;;;0.80;57.75;101512.16;2081623;28;20608;-71
2022/03/05 03:44:21;;;;;;;37.50;25.47;;;;;;;0.07;56.63;101422.66;2080794;28;20257;-71
2022/03/05 03:45:22;;;;;;;36.07;26.30;;;;;;;0.30;56.66;101429.97;2081515;28;20264;-71
2022/03/05 03:46:22;;;;;;;34.25;26.13;;;;;;;0.79;57.37;101518.75;2081125;28;20250;-71
2022/03/05 03:47:23;;;;;;;36.87;25.57;;;;;;;0.83;57.93;101518.84;2081434;28;20243;-71
2022/03/05 03:48:24;;;;;;;38.27;26.60;;;;;;;0.60;58.20;101499.47;2081604;28;20187;-71
2022/03/05 03:49:24;;;;;;;33.70;25.77;;;;;;;0.89;58.22;101536.56;2081607;28;20253;-71
2022/03/05 03:50:25;;;;;;;34.67;25.90;;;;;;;0.91;57.77;101520.63;2081771;28;20669;-71
2022/03/05 03:51:26;;;;;;;33.60;25.10;;;;;;;0.64;56.78;101473.09;2081492;28;20235;-71
2022/03/05 03:52:26;;;;;;;33.37;24.70;;;;;;;0.96;56.65;101514.94;2081626;28;20184;-71
2022/03/05 03:53:27;;;;;;;34.00;24.73;;;;;;;0.54;55.81;101481.75;2081442;28;20235;-71
2022/03/05 03:54:27;;;;;;;38.80;25.60;;;;;;;0.88;56.50;101521.34;2080719;28;20184;-71
2022/03/05 03:55:28;;;;;;;31.03;24.53;;;;;;;0.38;56.79;101458.25;2081219;28;20175;-71
2022/03/05 03:56:29;;;;;;;34.33;25.80;;;;;;;0.48;56.75;101469.47;2081281;28;20184;-71
2022/03/05 03:57:29;;;;;;;37.90;26.90;;;;;;;-0.93;56.88;101269.28;2081121;28;20275;-71
2022/03/05 03:58:30;;;;;;;40.23;25.90;;;;;;;0.71;57.13;101521.59;2081644;28;20260;-71
2022/03/05 03:59:30;;;;;;;35.17;25.13;;;;;;;0.48;56.71;101512.31;2081515;28;20677;-71
2022/03/05 04:00:31;;;;;;;36.87;26.43;;;;;;;-0.67;56.82;101302.38;2081435;28;20176;-71
2022/03/05 04:01:32;;;;;;;36.43;25.90;;;;;;;0.78;56.68;101527.28;2081454;28;20171;-70
2022/03/05 04:02:32;;;;;;;43.20;25.37;;;;;;;0.60;56.32;101495.94;2081603;28;20176;-71
2022/03/05 04:03:33;;;;;;;38.87;26.53;;;;;;;0.31;57.09;101452.59;2081359;28;20266;-71
2022/03/05 04:04:33;;;;;;;36.73;25.83;;;;;;;-0.39;57.22;101347.63;2080520;28;20207;-71
2022/03/05 04:05:34;;;;;;;35.43;25.23;;;;;;;0.77;56.86;101521.00;2081290;28;20187;-71
2022/03/05 04:09:15;;;;;;;40.30;25.70;;;;;;;0.72;57.23;101540.34;2081597;28;20175;-71
2022/03/05 04:10:16;;;;;;;53.60;27.53;;;;;;;0.65;56.99;101517.50;2081586;28;20219;-71
2022/03/05 04:11:20;;;;;;;48.08;27.13;;;;;;;0.48;57.31;101496.75;2080798;28;20183;-71
2022/03/05 04:12:21;;;;;;;46.50;27.17;;;;;;;0.65;57.80;101520.25;2080914;28;20177;-71
2022/03/05 04:13:22;;;;;;;41.17;25.73;;;;;;;0.60;57.18;101526.75;2081363;28;20262;-71
2022/03/05 04:14:23;;;;;;;38.50;24.40;;;;;;;-0.22;56.25;101401.09;2079957;28;20180;-70
2022/03/05 04:15:24;;;;;;;39.93;26.60;;;;;;;0.61;56.86;101536.50;2080513;28;20192;-70
2022/03/05 04:16:24;;;;;;;37.57;26.27;;;;;;;0.59;56.96;101527.88;2081014;28;20477;-70
2022/03/05 04:17:25;;;;;;;42.03;27.70;;;;;;;0.55;57.04;101528.88;2081226;28;20183;-70
2022/03/05 04:18:26;;;;;;;38.77;27.43;;;;;;;0.59;57.38;101525.16;2081404;28;20190;-71
2022/03/05 04:19:26;;;;;;;38.17;26.90;;;;;;;0.61;57.50;101522.06;2081429;28;20234;-71
2022/03/05 04:20:27;;;;;;;42.83;27.27;;;;;;;0.38;58.16;101505.41;2081303;28;20218;-71
2022/03/05 04:21:27;;;;;;;41.77;26.90;;;;;;;-0.09;57.68;101421.75;2081391;28;20178;-71
2022/03/05 04:22:28;;;;;;;38.87;25.50;;;;;;;-0.59;57.71;101353.22;2081302;28;20535;-70
2022/03/05 04:23:28;;;;;;;42.37;26.60;;;;;;;0.54;57.84;101533.56;2081451;28;20258;-71
2022/03/05 04:24:29;;;;;;;44.53;28.20;;;;;;;0.55;58.05;101535.16;2080326;28;20222;-71
2022/03/05 04:25:30;;;;;;;47.23;28.70;;;;;;;0.37;58.45;101509.25;2081016;28;20203;-71
2022/03/05 04:26:30;;;;;;;39.90;27.60;;;;;;;0.55;58.70;101529.69;2081036;28;20214;-71
2022/03/05 04:27:31;;;;;;;41.90;28.03;;;;;;;-0.32;58.77;101400.75;2081095;28;20182;-71
2022/03/05 04:28:31;;;;;;;43.17;28.50;;;;;;;0.60;57.85;101536.84;2081422;28;20587;-71
2022/03/05 04:29:33;;;;;;;54.17;30.67;;;;;;;-0.03;57.77;101440.25;2081290;28;20175;-71
2022/03/05 04:30:33;;;;;;;44.80;29.23;;;;;;;-0.47;58.26;101382.38;2081433;28;20177;-71
2022/03/05 04:31:34;;;;;;;39.97;28.57;;;;;;;0.23;57.95;101489.75;2081371;28;20701;-71
2022/03/05 04:32:35;;;;;;;41.90;27.93;;;;;;;0.38;57.65;101510.06;2081367;28;20183;-71
2022/03/05 04:33:36;;;;;;;36.03;26.77;;;;;;;0.40;57.25;101522.22;2080338;28;20180;-71
2022/03/05 04:34:36;;;;;;;40.10;26.53;;;;;;;0.45;57.63;101524.72;2079710;28;20207;-71
2022/03/05 04:35:37;;;;;;;38.30;27.83;;;;;;;0.57;57.80;101543.78;2080941;28;20647;-71
2022/03/05 04:36:38;;;;;;;39.20;27.30;;;;;;;-0.29;57.32;101418.00;2080721;28;20184;-71
2022/03/05 04:37:39;;;;;;;39.20;27.53;;;;;;;0.55;57.07;101547.97;2081302;28;20191;-71
2022/03/05 04:38:39;;;;;;;40.07;28.77;;;;;;;0.45;58.99;101534.81;2081226;28;20419;-71
2022/03/05 04:39:40;;;;;;;39.17;27.57;;;;;;;-0.77;58.18;101343.66;2080523;28;20258;-71
2022/03/05 04:40:41;;;;;;;35.37;26.87;;;;;;;0.23;57.52;101497.13;2080577;28;20184;-71
2022/03/05 04:41:41;;;;;;;38.10;27.03;;;;;;;0.37;57.14;101528.34;2080639;28;20279;-71